Time;durP1;ratioP1;P1;durP2;ratioP2;P2;SDS_P1;SDS_P2;PMS_P1;PMS_P2;Temp;Humidity;BMP_temperature;BMP_pressure;BME280_temperature;BME280_humidity;BME280_pressure;Samples;Min_cycle;Max_cycle;Signal;HPM_P1;HPM_P2
2023/07/12 00:01:18;;;;;;;5.47;2.97;;;18.30;99.90;;;;;;5114591;28;20214;-78
2023/07/12 00:03:47;;;;;;;7.53;3.40;;;18.30;99.90;;;;;;5114262;28;20218;-80
2023/07/12 00:06:18;;;;;;;7.20;3.57;;;18.30;99.90;;;;;;5101602;28;20213;-81
2023/07/12 00:08:47;;;;;;;8.23;3.37;;;18.20;99.90;;;;;;5094245;28;20250;-80
2023/07/12 00:11:17;;;;;;;9.93;3.70;;;18.20;99.90;;;;;;5093810;28;20207;-78
2023/07/12 00:13:45;;;;;;;7.20;2.90;;;18.20;99.90;;;;;;5093309;28;20256;-80
2023/07/12 00:16:24;;;;;;;7.03;3.30;;;18.10;99.90;;;;;;5093978;28;20265;-79
2023/07/12 00:18:52;;;;;;;11.57;3.60;;;18.10;99.90;;;;;;5093936;28;20207;-80
2023/07/12 00:21:23;;;;;;;7.53;3.50;;;18.00;99.90;;;;;;5093980;28;20202;-80
2023/07/12 00:23:52;;;;;;;7.30;3.63;;;18.00;99.90;;;;;;5093239;28;20223;-79
2023/07/12 00:26:23;;;;;;;8.33;3.90;;;18.00;99.90;;;;;;5093928;28;20206;-79
2023/07/12 00:28:51;;;;;;;11.90;4.07;;;18.10;99.90;;;;;;5093544;28;20732;-80
2023/07/12 00:31:21;;;;;;;8.23;3.67;;;18.10;99.90;;;;;;5093307;28;20264;-77
2023/07/12 00:33:49;;;;;;;11.77;3.80;;;18.10;99.90;;;;;;5092883;28;20209;-80
2023/07/12 00:36:21;;;;;;;7.37;3.80;;;18.10;99.90;;;;;;5093347;28;20218;-80
2023/07/12 00:38:49;;;;;;;6.87;3.43;;;18.10;99.90;;;;;;5093848;28;20230;-79
2023/07/12 00:41:24;;;;;;;9.50;3.77;;;18.10;99.90;;;;;;5093310;28;20567;-81
2023/07/12 00:43:57;;;;;;;8.10;3.53;;;18.10;99.90;;;;;;5093188;28;20234;-77
2023/07/12 00:46:31;;;;;;;9.47;3.93;;;18.10;99.90;;;;;;5093297;28;20211;-76
2023/07/12 00:49:01;;;;;;;8.40;3.47;;;18.10;99.90;;;;;;5092765;28;20206;-76
2023/07/12 00:51:40;;;;;;;6.50;3.70;;;18.10;99.90;;;;;;5113095;28;20202;-79
2023/07/12 00:54:14;;;;;;;7.57;3.83;;;18.10;99.90;;;;;;5113265;28;20194;-80
2023/07/12 00:56:43;;;;;;;9.20;3.80;;;18.10;99.90;;;;;;5113348;28;20287;-80
2023/07/12 00:59:14;;;;;;;8.00;3.80;;;18.10;99.90;;;;;;5109339;28;20256;-80
2023/07/12 01:01:45;;;;;;;13.47;4.10;;;18.20;99.90;;;;;;5092089;28;20246;-81
2023/07/12 01:04:20;;;;;;;6.97;3.63;;;18.20;99.90;;;;;;5092629;28;20297;-78
2023/07/12 01:06:50;;;;;;;7.47;3.50;;;18.20;99.90;;;;;;5093245;28;20214;-79
2023/07/12 01:09:19;;;;;;;7.33;3.90;;;18.20;99.90;;;;;;5114296;28;20600;-78
2023/07/12 01:11:47;;;;;;;9.17;4.17;;;18.20;99.90;;;;;;5126572;28;20209;-76
2023/07/12 01:14:17;;;;;;;10.27;4.40;;;18.20;99.90;;;;;;5129192;28;20202;-77
2023/07/12 01:16:51;;;;;;;6.63;4.10;;;18.20;99.90;;;;;;5119998;28;20201;-74
2023/07/12 01:19:19;;;;;;;9.77;4.33;;;18.20;99.90;;;;;;5093008;28;20207;-79
2023/07/12 01:21:51;;;;;;;9.30;4.63;;;18.30;99.90;;;;;;5092632;28;20207;-78
2023/07/12 01:24:20;;;;;;;8.80;4.77;;;18.20;99.90;;;;;;5092183;28;20273;-80
2023/07/12 01:26:50;;;;;;;9.63;4.90;;;18.30;99.90;;;;;;5093877;28;20215;-80
2023/07/12 01:29:18;;;;;;;10.10;4.50;;;18.30;99.90;;;;;;5113367;28;20648;-80
2023/07/12 01:31:47;;;;;;;8.77;4.60;;;18.30;99.90;;;;;;5112319;28;20679;-79
2023/07/12 01:34:17;;;;;;;11.00;4.77;;;18.20;99.90;;;;;;5112755;28;20334;-79
2023/07/12 01:36:46;;;;;;;6.13;3.77;;;18.30;99.90;;;;;;5109736;28;20683;-76
2023/07/12 01:39:16;;;;;;;9.23;4.33;;;18.30;99.90;;;;;;5092030;28;20749;-77
2023/07/12 01:41:44;;;;;;;8.70;4.00;;;18.30;99.90;;;;;;5092192;28;20203;-79
2023/07/12 01:44:12;;;;;;;8.40;4.17;;;18.30;99.90;;;;;;5091999;28;20272;-77
2023/07/12 01:46:40;;;;;;;6.87;4.07;;;18.30;99.90;;;;;;5092066;28;20211;-80
2023/07/12 01:49:08;;;;;;;9.13;4.23;;;18.30;99.90;;;;;;5092105;28;20293;-80
2023/07/12 01:51:36;;;;;;;10.50;4.60;;;18.30;99.90;;;;;;5092165;28;20234;-79
2023/07/12 01:54:05;;;;;;;8.90;4.57;;;18.30;99.90;;;;;;5105034;28;20267;-80
2023/07/12 01:56:34;;;;;;;9.23;4.27;;;18.30;99.90;;;;;;5112494;28;20291;-79
2023/07/12 01:59:02;;;;;;;9.27;4.30;;;18.30;99.90;;;;;;5094232;28;20249;-75
2023/07/12 02:01:31;;;;;;;7.43;4.23;;;18.30;99.90;;;;;;5091966;28;20230;-77
2023/07/12 02:03:59;;;;;;;6.83;4.00;;;18.20;99.90;;;;;;5091356;28;20697;-77
2023/07/12 02:06:27;;;;;;;6.83;4.23;;;18.20;99.90;;;;;;5091868;28;20207;-77
2023/07/12 02:08:55;;;;;;;7.57;4.03;;;18.20;99.90;;;;;;5092879;28;20210;-77
2023/07/12 02:11:23;;;;;;;7.07;3.67;;;18.20;99.90;;;;;;5092171;28;20567;-75
2023/07/12 02:13:53;;;;;;;7.83;4.13;;;18.20;99.90;;;;;;5091408;28;20271;-78
2023/07/12 02:16:20;;;;;;;9.97;4.00;;;18.20;99.90;;;;;;5091961;28;20735;-78
2023/07/12 02:18:48;;;;;;;8.60;4.50;;;18.20;99.90;;;;;;5092117;28;20290;-78
2023/07/12 02:21:17;;;;;;;6.27;3.63;;;18.20;99.90;;;;;;5092161;28;20283;-77
2023/07/12 02:23:45;;;;;;;8.57;4.13;;;18.20;99.90;;;;;;5095559;28;20227;-78
2023/07/12 02:26:13;;;;;;;9.37;4.53;;;18.20;99.90;;;;;;5096054;28;20209;-78
2023/07/12 02:28:41;;;;;;;7.43;4.10;;;18.10;99.90;;;;;;5096149;28;20268;-79
2023/07/12 02:31:20;;;;;;;8.33;4.30;;;18.10;99.90;;;;;;5095821;28;20214;-80
2023/07/12 02:33:49;;;;;;;10.00;4.80;;;18.10;99.90;;;;;;5095330;28;20249;-77
2023/07/12 02:36:18;;;;;;;8.10;4.50;;;18.10;99.90;;;;;;5096078;28;20207;-78
2023/07/12 02:38:46;;;;;;;7.13;4.50;;;18.00;99.90;;;;;;5095492;28;20603;-75
2023/07/12 02:41:16;;;;;;;8.37;4.90;;;18.00;99.90;;;;;;5095521;28;20218;-79
2023/07/12 02:43:44;;;;;;;12.37;5.20;;;18.10;99.90;;;;;;5095065;28;20713;-77
2023/07/12 02:46:12;;;;;;;10.07;4.93;;;18.00;99.90;;;;;;5095788;28;20213;-76
2023/07/12 02:48:42;;;;;;;9.47;5.07;;;18.10;99.90;;;;;;5095745;28;20230;-78
2023/07/12 02:51:10;;;;;;;9.20;5.30;;;18.00;99.90;;;;;;5095610;28;20238;-74
2023/07/12 02:53:39;;;;;;;9.93;5.20;;;18.00;99.90;;;;;;5095293;28;20206;-80
2023/07/12 02:56:08;;;;;;;14.03;5.50;;;18.00;99.90;;;;;;5095633;28;20248;-80
2023/07/12 02:58:37;;;;;;;9.80;5.20;;;18.00;99.90;;;;;;5095393;28;20256;-78
2023/07/12 03:01:06;;;;;;;10.90;4.90;;;18.00;99.90;;;;;;5095239;28;20211;-80
2023/07/12 03:03:35;;;;;;;9.67;5.13;;;18.00;99.90;;;;;;5094572;28;20681;-80
2023/07/12 03:06:06;;;;;;;11.67;5.70;;;18.00;99.90;;;;;;5095497;28;20298;-78
2023/07/12 03:08:34;;;;;;;9.80;5.30;;;18.00;99.90;;;;;;5095185;28;20547;-80
2023/07/12 03:11:03;;;;;;;9.07;4.87;;;17.90;99.90;;;;;;5095296;28;20662;-78
2023/07/12 03:13:31;;;;;;;9.70;5.27;;;18.00;99.90;;;;;;5095020;28;20297;-79
2023/07/12 03:16:00;;;;;;;10.90;5.60;;;17.90;99.90;;;;;;5109472;28;20206;-77
2023/07/12 03:18:28;;;;;;;8.77;5.40;;;18.00;99.90;;;;;;5115440;28;20214;-80
2023/07/12 03:21:00;;;;;;;9.43;5.13;;;17.90;99.90;;;;;;5115097;28;20240;-80
2023/07/12 03:23:30;;;;;;;8.57;5.03;;;18.00;99.90;;;;;;5104205;28;20209;-80
2023/07/12 03:25:59;;;;;;;12.83;6.17;;;17.90;99.90;;;;;;5094747;28;20446;-82
2023/07/12 03:28:27;;;;;;;11.00;5.57;;;17.90;99.90;;;;;;5094502;28;20202;-81
2023/07/12 03:31:00;;;;;;;11.23;5.67;;;17.90;99.90;;;;;;5094447;28;20284;-80
2023/07/12 03:33:29;;;;;;;11.67;5.77;;;17.90;99.90;;;;;;5093440;28;20230;-81
2023/07/12 03:35:57;;;;;;;7.13;5.27;;;17.90;99.90;;;;;;5094424;28;20202;-77
2023/07/12 03:38:26;;;;;;;9.93;5.70;;;17.80;99.90;;;;;;5094406;28;20210;-80
2023/07/12 03:40:57;;;;;;;9.77;5.20;;;17.80;99.90;;;;;;5094130;28;20599;-79
2023/07/12 03:43:25;;;;;;;9.53;5.80;;;17.80;99.90;;;;;;5094333;28;20195;-80
2023/07/12 03:45:54;;;;;;;9.03;5.73;;;17.80;99.90;;;;;;5094434;28;20230;-80
2023/07/12 03:48:23;;;;;;;17.33;5.53;;;17.80;99.90;;;;;;5094711;28;20565;-79
2023/07/12 03:50:55;;;;;;;8.53;5.20;;;17.80;99.90;;;;;;5094115;28;20206;-79
2023/07/12 03:53:24;;;;;;;9.93;4.97;;;17.80;99.90;;;;;;5094047;28;20202;-79
2023/07/12 03:55:52;;;;;;;9.30;5.13;;;17.80;99.90;;;;;;5093893;28;20344;-78
2023/07/12 03:58:23;;;;;;;12.17;4.97;;;17.80;99.90;;;;;;5114217;28;20210;-78
2023/07/12 04:00:52;;;;;;;9.37;5.00;;;17.80;99.90;;;;;;5114422;28;20194;-77
2023/07/12 04:03:20;;;;;;;11.73;4.87;;;17.80;99.90;;;;;;5113817;28;20238;-78
2023/07/12 04:05:51;;;;;;;9.70;4.50;;;17.80;99.90;;;;;;5114206;28;20523;-80
2023/07/12 04:08:20;;;;;;;7.50;4.30;;;17.80;99.90;;;;;;5108095;28;20214;-80
2023/07/12 04:10:52;;;;;;;8.67;4.30;;;17.80;99.90;;;;;;5094134;28;20207;-80
2023/07/12 04:13:23;;;;;;;8.87;4.43;;;17.90;99.90;;;;;;5093674;28;20211;-80
2023/07/12 04:15:54;;;;;;;10.20;4.47;;;17.90;99.90;;;;;;5094352;28;20199;-79
2023/07/12 04:18:22;;;;;;;9.00;4.43;;;17.90;99.90;;;;;;5093732;28;20203;-79
2023/07/12 04:20:50;;;;;;;8.20;4.00;;;17.90;99.90;;;;;;5094092;28;20210;-74
2023/07/12 04:23:19;;;;;;;11.03;4.80;;;17.90;99.90;;;;;;5093232;28;20602;-79
2023/07/12 04:25:47;;;;;;;10.47;4.20;;;18.00;99.90;;;;;;5093553;28;20283;-78
2023/07/12 04:28:15;;;;;;;8.00;4.10;;;18.10;99.90;;;;;;5093762;28;20215;-77
2023/07/12 04:30:45;;;;;;;7.03;4.00;;;18.10;99.90;;;;;;5093595;28;20211;-76
2023/07/12 04:33:13;;;;;;;8.40;4.30;;;18.20;99.90;;;;;;5093441;28;20545;-75
2023/07/12 04:35:41;;;;;;;6.60;3.90;;;18.20;99.90;;;;;;5093025;28;20198;-81
2023/07/12 04:38:09;;;;;;;10.50;5.17;;;18.20;99.90;;;;;;5093214;28;20213;-76
2023/07/12 04:40:37;;;;;;;8.83;4.60;;;18.20;99.90;;;;;;5093424;28;20694;-77
2023/07/12 04:43:05;;;;;;;10.83;4.17;;;18.20;99.90;;;;;;5093290;28;20207;-79
2023/07/12 04:45:34;;;;;;;10.30;4.17;;;18.30;99.90;;;;;;5092852;28;20219;-77
2023/07/12 04:48:03;;;;;;;9.20;4.40;;;18.30;99.90;;;;;;5093480;28;20210;-79
2023/07/12 04:50:34;;;;;;;7.90;4.10;;;18.40;99.90;;;;;;5093313;28;20321;-80
2023/07/12 04:53:02;;;;;;;10.73;4.60;;;18.40;99.90;;;;;;5092498;28;20211;-79
2023/07/12 04:55:31;;;;;;;10.57;4.40;;;18.50;99.90;;;;;;5092898;28;20623;-76
2023/07/12 04:57:59;;;;;;;11.70;4.57;;;18.50;99.90;;;;;;5093181;28;20206;-80
2023/07/12 05:00:28;;;;;;;9.27;4.50;;;18.50;99.90;;;;;;5092421;28;20221;-79
2023/07/12 05:02:56;;;;;;;7.97;4.23;;;18.50;99.90;;;;;;5092667;28;20209;-78
2023/07/12 05:05:26;;;;;;;8.20;4.27;;;18.60;99.90;;;;;;5093141;28;20254;-78
2023/07/12 05:07:54;;;;;;;6.03;4.00;;;18.70;99.90;;;;;;5093257;28;20278;-77
2023/07/12 05:10:22;;;;;;;7.83;4.43;;;18.80;99.90;;;;;;5092529;28;20607;-79
2023/07/12 05:12:50;;;;;;;7.53;4.13;;;18.80;99.90;;;;;;5092989;28;20290;-79
2023/07/12 05:15:20;;;;;;;9.53;4.07;;;18.80;99.90;;;;;;5093031;28;20217;-77
2023/07/12 05:17:48;;;;;;;9.13;4.13;;;18.80;99.90;;;;;;5092432;28;20555;-78
2023/07/12 05:20:17;;;;;;;7.50;4.07;;;18.90;99.90;;;;;;5092792;28;20688;-78
2023/07/12 05:22:47;;;;;;;9.63;4.20;;;18.90;99.90;;;;;;5092557;28;20203;-79
2023/07/12 05:25:16;;;;;;;13.70;4.50;;;19.00;99.90;;;;;;5092437;28;20696;-79
2023/07/12 05:27:44;;;;;;;6.50;3.93;;;19.00;99.90;;;;;;5092448;28;20239;-77
2023/07/12 05:30:12;;;;;;;8.33;4.10;;;19.10;99.90;;;;;;5092787;28;20207;-77
2023/07/12 05:32:40;;;;;;;11.27;4.57;;;19.20;99.90;;;;;;5092186;28;20222;-77
2023/07/12 05:35:09;;;;;;;9.03;4.43;;;19.20;99.90;;;;;;5092960;28;20268;-79
2023/07/12 05:37:37;;;;;;;9.13;3.87;;;19.30;99.90;;;;;;5092907;28;20213;-76
2023/07/12 05:40:10;;;;;;;11.67;4.27;;;19.40;99.90;;;;;;5092423;28;20570;-76
2023/07/12 05:42:40;;;;;;;9.17;3.80;;;19.60;99.90;;;;;;5092276;28;20294;-75
2023/07/12 05:45:10;;;;;;;10.97;4.17;;;19.70;99.90;;;;;;5092202;28;20210;-76
2023/07/12 05:47:38;;;;;;;9.60;4.07;;;19.90;99.90;;;;;;5092583;28;20211;-77
2023/07/12 05:50:11;;;;;;;8.87;3.70;;;20.00;99.90;;;;;;5092372;28;20207;-76
2023/07/12 05:52:39;;;;;;;7.30;3.77;;;20.10;99.90;;;;;;5103197;28;20209;-77
2023/07/12 05:55:11;;;;;;;6.83;3.37;;;20.30;99.90;;;;;;5112831;28;20214;-76
2023/07/12 05:57:39;;;;;;;7.10;3.60;;;20.50;99.90;;;;;;5112288;28;20263;-75
2023/07/12 06:00:10;;;;;;;11.93;3.60;;;20.70;99.90;;;;;;5112821;28;20350;-76
2023/07/12 06:02:38;;;;;;;9.83;3.60;;;20.80;99.90;;;;;;5093654;28;20628;-77
2023/07/12 06:05:08;;;;;;;7.37;3.83;;;20.80;99.90;;;;;;5092448;28;20260;-77
2023/07/12 06:07:36;;;;;;;8.60;3.60;;;20.80;99.90;;;;;;5092128;28;20672;-78
2023/07/12 06:10:04;;;;;;;8.50;3.57;;;20.70;99.90;;;;;;5092257;28;20276;-77
2023/07/12 06:12:34;;;;;;;9.53;3.70;;;20.60;99.90;;;;;;5091971;28;20215;-77
2023/07/12 06:15:02;;;;;;;8.87;3.70;;;20.70;99.90;;;;;;5092259;28;20264;-74
2023/07/12 06:17:31;;;;;;;8.43;4.00;;;20.80;99.90;;;;;;5092361;28;20201;-77
2023/07/12 06:19:59;;;;;;;6.23;3.40;;;20.70;99.90;;;;;;5092355;28;20203;-77
2023/07/12 06:22:27;;;;;;;8.40;3.70;;;20.90;99.90;;;;;;5091668;28;20206;-79
2023/07/12 06:24:56;;;;;;;7.53;3.63;;;21.00;99.90;;;;;;5092252;28;20206;-76
2023/07/12 06:27:25;;;;;;;7.57;3.47;;;21.10;99.90;;;;;;5092260;28;20231;-75
2023/07/12 06:29:54;;;;;;;8.83;3.77;;;21.20;99.90;;;;;;5092576;28;20207;-76
2023/07/12 06:32:22;;;;;;;7.40;3.43;;;21.40;99.90;;;;;;5091699;28;20263;-76
2023/07/12 06:34:50;;;;;;;8.67;3.70;;;21.40;99.90;;;;;;5091530;28;20230;-76
2023/07/12 06:37:19;;;;;;;6.93;3.70;;;21.50;99.90;;;;;;5092149;28;20203;-79
2023/07/12 06:39:47;;;;;;;10.07;3.73;;;21.60;99.90;;;;;;5092212;28;20623;-76
2023/07/12 06:42:15;;;;;;;7.70;3.60;;;21.50;99.90;;;;;;5091669;28;20210;-75
2023/07/12 06:44:43;;;;;;;9.43;3.63;;;21.40;99.90;;;;;;5092230;28;20264;-77
2023/07/12 06:47:13;;;;;;;9.23;3.77;;;21.30;99.90;;;;;;5092010;28;20223;-77
2023/07/12 06:49:41;;;;;;;7.60;4.00;;;21.20;99.90;;;;;;5092047;28;20223;-78
2023/07/12 06:52:10;;;;;;;11.83;4.00;;;21.00;99.90;;;;;;5091688;28;20799;-75
2023/07/12 06:54:39;;;;;;;13.93;4.30;;;21.00;99.90;;;;;;5091531;28;20601;-77
2023/07/12 06:57:07;;;;;;;13.13;4.27;;;20.80;99.90;;;;;;5091774;28;20258;-76
2023/07/12 06:59:35;;;;;;;12.00;4.40;;;20.70;99.90;;;;;;5091813;28;20203;-78
2023/07/12 07:02:04;;;;;;;8.23;3.97;;;20.70;99.90;;;;;;5097169;28;20206;-77
2023/07/12 07:04:33;;;;;;;6.73;3.50;;;20.50;99.90;;;;;;5108401;28;20202;-78
2023/07/12 07:07:01;;;;;;;6.83;3.57;;;20.40;99.90;;;;;;5091822;28;20246;-76
2023/07/12 07:09:31;;;;;;;10.17;3.43;;;20.30;99.90;;;;;;5093223;28;20668;-75
2023/07/12 07:11:59;;;;;;;9.00;3.40;;;20.30;99.90;;;;;;5107883;28;20236;-77
2023/07/12 07:14:27;;;;;;;8.57;3.50;;;20.20;99.90;;;;;;5115808;28;20241;-76
2023/07/12 07:16:55;;;;;;;7.57;3.60;;;20.30;99.90;;;;;;5115865;28;20244;-77
2023/07/12 07:19:24;;;;;;;5.20;3.20;;;20.20;99.90;;;;;;5108272;28;20230;-77
2023/07/12 07:21:53;;;;;;;8.53;3.33;;;20.20;99.90;;;;;;5094936;28;20279;-77
2023/07/12 07:24:21;;;;;;;10.03;3.60;;;20.20;99.90;;;;;;5095282;28;20215;-76
2023/07/12 07:26:50;;;;;;;6.53;3.20;;;20.10;99.90;;;;;;5095067;28;20227;-79
2023/07/12 07:29:18;;;;;;;8.13;3.70;;;20.10;99.90;;;;;;5094992;28;20207;-77
2023/07/12 07:31:46;;;;;;;6.47;3.03;;;20.10;99.90;;;;;;5095032;28;20219;-78
2023/07/12 07:34:15;;;;;;;9.53;3.63;;;20.10;99.90;;;;;;5095138;28;20310;-77
2023/07/12 07:36:43;;;;;;;9.53;3.40;;;20.10;99.90;;;;;;5095176;28;20202;-79
2023/07/12 07:39:12;;;;;;;7.13;3.40;;;20.10;99.90;;;;;;5094860;28;20206;-78
2023/07/12 07:41:41;;;;;;;11.00;3.43;;;20.10;99.90;;;;;;5094813;28;20211;-79
2023/07/12 07:44:09;;;;;;;5.00;3.13;;;20.20;99.90;;;;;;5094484;28;20246;-75
2023/07/12 07:46:37;;;;;;;6.93;3.30;;;20.20;99.90;;;;;;5094903;28;20692;-77
2023/07/12 07:49:05;;;;;;;6.60;3.00;;;20.30;99.90;;;;;;5094841;28;20210;-77
2023/07/12 07:51:36;;;;;;;10.00;3.40;;;20.30;99.90;;;;;;5094633;28;20209;-74
2023/07/12 07:54:05;;;;;;;7.17;3.20;;;20.50;99.90;;;;;;5094916;28;20331;-78
2023/07/12 07:56:34;;;;;;;7.00;2.93;;;20.60;99.90;;;;;;5094935;28;20276;-79
2023/07/12 07:59:02;;;;;;;6.97;2.67;;;20.70;99.90;;;;;;5111721;28;20206;-77
2023/07/12 08:01:31;;;;;;;5.17;2.47;;;20.80;99.90;;;;;;5114892;28;20597;-79
2023/07/12 08:03:59;;;;;;;6.40;2.70;;;20.80;99.90;;;;;;5117697;28;20217;-74
2023/07/12 08:06:27;;;;;;;5.90;2.20;;;20.80;99.90;;;;;;5120439;28;20660;-76
2023/07/12 08:08:55;;;;;;;6.67;2.50;;;20.90;99.90;;;;;;5099236;28;20284;-77
2023/07/12 08:11:23;;;;;;;3.10;2.30;;;20.90;99.90;;;;;;5094334;28;20553;-77
2023/07/12 08:13:53;;;;;;;6.43;1.87;;;20.90;99.90;;;;;;5093800;28;20207;-78
2023/07/12 08:16:27;;;;;;;4.83;2.07;;;21.00;99.90;;;;;;5093991;28;20254;-78
2023/07/12 08:18:57;;;;;;;5.40;2.00;;;21.10;99.90;;;;;;5094156;28;20210;-77
2023/07/12 08:21:25;;;;;;;4.83;2.00;;;21.20;99.90;;;;;;5093752;28;20285;-78
2023/07/12 08:23:53;;;;;;;4.73;2.20;;;21.40;99.90;;;;;;5094025;28;20210;-75
2023/07/12 08:26:21;;;;;;;4.70;1.80;;;21.50;99.90;;;;;;5094112;28;20207;-74
2023/07/12 08:28:51;;;;;;;6.60;2.00;;;21.70;99.90;;;;;;5094163;28;20272;-75
2023/07/12 08:31:20;;;;;;;7.93;1.80;;;21.80;99.90;;;;;;5093954;28;20219;-74
2023/07/12 08:33:49;;;;;;;4.97;1.90;;;22.00;99.90;;;;;;5093690;28;20207;-75
2023/07/12 08:36:17;;;;;;;5.03;1.90;;;22.10;99.90;;;;;;5093628;28;20218;-77
2023/07/12 08:38:46;;;;;;;3.70;2.00;;;22.20;99.90;;;;;;5093665;28;20203;-77
2023/07/12 08:41:17;;;;;;;4.80;1.60;;;22.10;99.90;;;;;;5093645;28;20264;-74
2023/07/12 08:43:45;;;;;;;3.37;1.90;;;22.20;99.90;;;;;;5093187;28;20253;-77
2023/07/12 08:46:18;;;;;;;2.63;1.70;;;22.40;99.90;;;;;;5093543;28;20210;-77
2023/07/12 08:48:52;;;;;;;3.87;1.77;;;22.50;99.90;;;;;;5093794;28;20211;-78
2023/07/12 08:51:27;;;;;;;5.43;1.80;;;22.60;99.90;;;;;;5093668;28;20238;-77
2023/07/12 08:53:56;;;;;;;3.77;1.73;;;22.80;99.90;;;;;;5093168;28;20256;-78
2023/07/12 08:56:24;;;;;;;4.90;1.80;;;22.90;99.90;;;;;;5093613;28;20596;-78
2023/07/12 08:58:54;;;;;;;2.23;1.50;;;23.10;99.90;;;;;;5093691;28;20230;-77
2023/07/12 09:01:41;;;;;;;4.43;2.03;;;23.50;99.90;;;;;;5093500;28;20240;-77
2023/07/12 09:04:24;;;;;;;4.77;1.57;;;24.00;99.90;;;;;;5111846;28;20206;-75
2023/07/12 09:06:55;;;;;;;5.23;1.90;;;24.70;99.90;;;;;;5113299;28;20671;-76
2023/07/12 09:09:26;;;;;;;2.70;1.67;;;25.20;99.90;;;;;;5113847;28;20271;-75
2023/07/12 09:11:54;;;;;;;4.17;2.03;;;25.50;99.90;;;;;;5095119;28;20234;-73
2023/07/12 09:14:25;;;;;;;5.40;1.70;;;26.00;99.90;;;;;;5093095;28;20260;-77
2023/07/12 09:16:58;;;;;;;2.80;1.60;;;26.20;99.90;;;;;;5092743;28;20567;-77
2023/07/12 09:19:32;;;;;;;5.43;1.47;;;26.60;99.90;;;;;;5092768;28;20253;-75
2023/07/12 09:22:02;;;;;;;2.47;1.37;;;26.80;99.90;;;;;;5092362;28;20191;-75
2023/07/12 09:24:31;;;;;;;3.90;1.60;;;27.00;99.90;;;;;;5092610;28;20688;-76
2023/07/12 09:27:04;;;;;;;5.13;1.87;;;26.60;99.90;;;;;;5092907;28;20268;-76
2023/07/12 09:29:33;;;;;;;3.30;1.77;;;26.60;99.90;;;;;;5092739;28;20548;-75
2023/07/12 09:32:02;;;;;;;4.80;1.80;;;26.60;99.90;;;;;;5091737;28;20578;-75
2023/07/12 09:34:37;;;;;;;3.28;1.40;;;26.90;99.90;;;;;;5092824;28;20221;-74
2023/07/12 09:37:15;;;;;;;3.53;1.63;;;27.10;99.90;;;;;;5092791;28;20718;-74
2023/07/12 09:39:56;;;;;;;2.67;1.40;;;26.80;99.90;;;;;;5092830;28;20649;-74
2023/07/12 09:42:25;;;;;;;5.97;1.60;;;26.70;99.90;;;;;;5092714;28;20207;-74
2023/07/12 09:44:54;;;;;;;4.77;1.80;;;26.70;99.90;;;;;;5093251;28;20206;-75
2023/07/12 09:47:38;;;;;;;2.27;1.40;;;27.00;99.90;;;;;;5099585;28;20210;-76
2023/07/12 09:50:15;;;;;;;2.75;1.30;;;27.40;99.90;;;;;;5112854;28;20197;-75
2023/07/12 09:52:56;;;;;;;4.05;1.77;;;27.30;99.90;;;;;;5113213;28;20216;-75
2023/07/12 09:55:30;;;;;;;5.70;1.65;;;27.60;99.90;;;;;;5101723;28;20275;-75
2023/07/12 09:58:09;;;;;;;3.40;1.60;;;27.30;99.90;;;;;;5092929;28;20232;-75
2023/07/12 10:00:44;;;;;;;3.72;1.52;;;27.20;99.90;;;;;;5092728;28;20191;-77
2023/07/12 10:03:18;;;;;;;2.85;1.80;;;28.00;99.90;;;;;;5092629;28;20210;-75
2023/07/12 10:05:56;;;;;;;3.60;1.80;;;28.40;99.90;;;;;;5092948;28;20202;-77
2023/07/12 10:08:26;;;;;;;3.00;1.98;;;28.70;99.90;;;;;;5092582;28;20210;-76
2023/07/12 10:11:04;;;;;;;3.88;1.77;;;29.20;96.70;;;;;;5095142;28;20203;-76
2023/07/12 10:13:40;;;;;;;3.83;1.60;;;29.20;98.90;;;;;;5098712;28;20206;-75
2023/07/12 10:16:19;;;;;;;2.70;1.80;;;29.30;95.60;;;;;;5097994;28;20267;-75
2023/07/12 10:18:49;;;;;;;2.47;1.70;;;29.40;96.90;;;;;;5092969;28;20238;-75
2023/07/12 10:21:21;;;;;;;3.30;1.83;;;29.50;96.00;;;;;;5095644;28;20206;-75
2023/07/12 10:23:53;;;;;;;5.60;1.92;;;30.00;93.00;;;;;;5092463;28;20545;-74
2023/07/12 10:26:21;;;;;;;3.05;1.90;;;29.80;95.70;;;;;;5095191;28;20203;-74
2023/07/12 10:28:56;;;;;;;3.92;1.90;;;29.90;94.60;;;;;;5092426;28;20236;-74
2023/07/12 10:31:34;;;;;;;5.38;2.03;;;29.80;94.80;;;;;;5075829;28;20210;-75
2023/07/12 10:34:21;;;;;;;5.05;1.90;;;29.90;94.40;;;;;;5092645;28;20618;-75
2023/07/12 10:36:53;;;;;;;2.90;1.50;;;30.70;90.30;;;;;;5092941;28;20255;-77
2023/07/12 10:39:22;;;;;;;4.20;1.90;;;31.10;89.70;;;;;;5092914;28;20203;-76
2023/07/12 10:41:55;;;;;;;3.33;1.80;;;31.60;88.10;;;;;;5092252;28;20207;-78
2023/07/12 10:44:27;;;;;;;4.45;1.67;;;32.10;88.00;;;;;;5096232;28;20211;-75
2023/07/12 10:46:58;;;;;;;7.30;2.13;;;32.10;89.60;;;;;;5097365;28;20659;-75
2023/07/12 10:49:42;;;;;;;5.78;2.10;;;32.10;83.50;;;;;;5097451;28;20229;-76
2023/07/12 10:52:29;;;;;;;4.03;1.90;;;32.30;78.20;;;;;;5096372;28;20736;-77
2023/07/12 10:55:21;;;;;;;5.70;2.22;;;32.50;78.10;;;;;;5098910;28;20210;-77
2023/07/12 10:57:51;;;;;;;6.15;2.10;;;32.90;75.80;;;;;;5109652;28;20202;-74
2023/07/12 11:00:27;;;;;;;6.65;2.13;;;32.40;73.50;;;;;;5117755;28;20209;-77
2023/07/12 11:03:04;;;;;;;7.10;2.38;;;31.70;73.10;;;;;;5119637;28;20190;-81
2023/07/12 11:05:43;;;;;;;4.32;2.20;;;31.20;79.30;;;;;;5119941;28;20297;-78
2023/07/12 11:08:39;;;;;;;5.13;2.22;;;31.20;79.90;;;;;;5098730;28;20191;-78
2023/07/12 11:11:44;;;;;;;6.32;2.30;;;31.20;82.90;;;;;;5096973;28;20565;-77
2023/07/12 11:14:25;;;;;;;6.22;2.47;;;31.40;80.50;;;;;;5098330;28;20703;-75
2023/07/12 11:17:12;;;;;;;6.32;2.75;;;31.80;83.50;;;;;;5098479;28;20206;-79
2023/07/12 11:20:03;;;;;;;4.03;2.63;;;31.90;80.30;;;;;;5098710;28;20246;-77
2023/07/12 11:23:25;;;;;;;4.72;2.45;;;32.20;77.80;;;;;;5099560;28;21243;-78
2023/07/12 11:25:58;;;;;;;7.45;2.83;;;32.20;75.70;;;;;;5012181;28;20621;-78
2023/07/12 11:28:37;;;;;;;5.22;2.58;;;32.00;76.90;;;;;;5013924;28;20210;-78
2023/07/12 11:31:29;;;;;;;4.95;2.50;;;31.80;79.90;;;;;;5071045;28;20673;-76
2023/07/12 11:34:13;;;;;;;5.88;2.70;;;32.00;80.00;;;;;;5095638;28;20207;-77
2023/07/12 11:36:41;;;;;;;5.72;2.90;;;32.30;81.70;;;;;;5097382;28;20268;-75
2023/07/12 11:39:17;;;;;;;5.18;2.65;;;32.40;79.80;;;;;;5096947;28;20269;-76
2023/07/12 11:41:55;;;;;;;7.13;3.03;;;32.40;81.60;;;;;;5097492;28;20560;-76
2023/07/12 11:44:25;;;;;;;5.85;3.00;;;32.10;78.70;;;;;;5096160;28;20207;-76
2023/07/12 11:46:55;;;;;;;6.93;3.33;;;31.90;81.60;;;;;;5098010;28;20272;-74
2023/07/12 11:49:28;;;;;;;8.35;3.42;;;31.90;81.50;;;;;;5100114;28;20214;-75
2023/07/12 11:51:57;;;;;;;7.25;3.10;;;31.70;83.10;;;;;;5099783;28;20278;-74
2023/07/12 11:54:28;;;;;;;8.57;3.13;;;31.50;81.00;;;;;;5097539;28;20216;-77
2023/07/12 11:57:01;;;;;;;7.63;3.28;;;31.70;87.90;;;;;;5098061;28;20226;-76
2023/07/12 11:59:32;;;;;;;8.07;3.42;;;31.90;84.50;;;;;;5098419;28;20234;-75
2023/07/12 12:02:05;;;;;;;6.53;3.33;;;31.70;80.80;;;;;;5100089;28;20183;-76
2023/07/12 12:04:33;;;;;;;7.57;3.20;;;31.80;80.50;;;;;;5101807;28;20233;-76
2023/07/12 12:07:05;;;;;;;9.23;3.42;;;32.00;83.00;;;;;;5097346;28;20680;-76
2023/07/12 12:09:36;;;;;;;8.60;3.67;;;32.10;80.60;;;;;;5101883;28;20214;-75
2023/07/12 12:12:09;;;;;;;7.55;3.70;;;32.10;84.30;;;;;;5099616;28;20199;-75
2023/07/12 12:14:41;;;;;;;10.48;3.95;;;32.40;77.70;;;;;;5105083;28;20219;-75
2023/07/12 12:17:17;;;;;;;6.72;3.33;;;32.60;81.10;;;;;;5100812;28;20260;-78
2023/07/12 12:19:48;;;;;;;9.40;4.10;;;32.40;73.30;;;;;;5104279;28;20711;-76
2023/07/12 12:22:19;;;;;;;8.43;3.38;;;32.30;77.70;;;;;;5105653;28;20668;-77
2023/07/12 12:24:50;;;;;;;9.05;3.70;;;32.40;76.60;;;;;;5125333;28;20214;-77
2023/07/12 12:27:23;;;;;;;7.40;3.85;;;32.40;73.70;;;;;;5130393;28;20265;-77
2023/07/12 12:29:51;;;;;;;8.52;3.47;;;32.40;75.00;;;;;;5129322;28;20198;-77
2023/07/12 12:32:22;;;;;;;6.28;3.58;;;32.00;74.00;;;;;;5116149;28;20373;-76
2023/07/12 12:34:54;;;;;;;9.38;3.60;;;32.00;76.50;;;;;;5101771;28;20266;-76
2023/07/12 12:37:28;;;;;;;11.18;3.50;;;32.10;75.30;;;;;;5103654;28;20214;-75
2023/07/12 12:39:57;;;;;;;7.80;3.28;;;31.70;75.90;;;;;;5113012;28;20235;-76
2023/07/12 12:42:29;;;;;;;7.50;3.67;;;31.10;75.40;;;;;;5123075;28;20205;-75
2023/07/12 12:44:58;;;;;;;9.77;3.88;;;30.60;78.80;;;;;;5124762;28;20194;-77
2023/07/12 12:47:30;;;;;;;8.50;4.15;;;30.40;82.90;;;;;;5121189;28;20221;-76
2023/07/12 12:49:59;;;;;;;7.45;3.70;;;30.80;84.40;;;;;;5099678;28;20210;-76
2023/07/12 12:52:33;;;;;;;6.90;4.20;;;31.40;83.70;;;;;;5098042;28;20252;-76
2023/07/12 12:55:21;;;;;;;7.80;4.15;;;31.30;77.30;;;;;;5097465;28;20317;-76
2023/07/12 12:57:56;;;;;;;9.73;4.43;;;31.20;80.50;;;;;;5098282;28;20765;-75
2023/07/12 13:00:29;;;;;;;9.10;4.05;;;31.20;82.40;;;;;;5078693;28;20226;-74
2023/07/12 13:03:00;;;;;;;8.50;3.85;;;30.90;79.80;;;;;;5095737;28;20203;-74
2023/07/12 13:05:31;;;;;;;8.88;3.78;;;30.50;82.20;;;;;;5097501;28;20211;-74